sensor_id;sensor_type;location;lat;lon;timestamp;P1;durP1;ratioP1;P2;durP2;ratioP2
54269;SDS011;40181;51.560;13.000;2023-04-24T00:01:45;3.20;;;2.17;;
54269;SDS011;40181;51.560;13.000;2023-04-24T00:04:15;3.00;;;2.33;;
54269;SDS011;40181;51.560;13.000;2023-04-24T00:06:44;3.25;;;2.28;;
54269;SDS011;40181;51.560;13.000;2023-04-24T00:09:14;2.17;;;1.98;;
54269;SDS011;40181;51.560;13.000;2023-04-24T00:11:43;2.25;;;1.98;;
54269;SDS011;40181;51.560;13.000;2023-04-24T00:14:12;3.47;;;1.92;;
54269;SDS011;40181;51.560;13.000;2023-04-24T00:16:41;3.17;;;2.15;;
54269;SDS011;40181;51.560;13.000;2023-04-24T00:19:13;3.55;;;1.85;;
54269;SDS011;40181;51.560;13.000;2023-04-24T00:21:42;2.38;;;1.80;;
54269;SDS011;40181;51.560;13.000;2023-04-24T00:24:11;2.75;;;1.77;;
54269;SDS011;40181;51.560;13.000;2023-04-24T00:26:40;2.67;;;1.75;;
54269;SDS011;40181;51.560;13.000;2023-04-24T00:29:09;2.13;;;1.92;;
54269;SDS011;40181;51.560;13.000;2023-04-24T00:31:38;2.50;;;1.80;;
54269;SDS011;40181;51.560;13.000;2023-04-24T00:34:11;1.57;;;1.30;;
54269;SDS011;40181;51.560;13.000;2023-04-24T00:36:40;2.22;;;1.48;;
54269;SDS011;40181;51.560;13.000;2023-04-24T00:39:09;2.70;;;2.00;;
54269;SDS011;40181;51.560;13.000;2023-04-24T00:41:38;3.20;;;1.95;;
54269;SDS011;40181;51.560;13.000;2023-04-24T00:44:07;2.13;;;1.80;;
54269;SDS011;40181;51.560;13.000;2023-04-24T00:46:37;3.33;;;2.30;;
54269;SDS011;40181;51.560;13.000;2023-04-24T00:49:07;2.10;;;1.75;;
54269;SDS011;40181;51.560;13.000;2023-04-24T00:51:38;3.33;;;2.20;;
54269;SDS011;40181;51.560;13.000;2023-04-24T00:54:10;2.60;;;1.85;;
54269;SDS011;40181;51.560;13.000;2023-04-24T00:56:39;4.18;;;2.42;;
54269;SDS011;40181;51.560;13.000;2023-04-24T00:59:10;2.78;;;2.17;;
54269;SDS011;40181;51.560;13.000;2023-04-24T01:01:40;2.63;;;2.05;;
54269;SDS011;40181;51.560;13.000;2023-04-24T01:04:12;3.45;;;1.75;;
54269;SDS011;40181;51.560;13.000;2023-04-24T01:06:42;3.72;;;1.92;;
54269;SDS011;40181;51.560;13.000;2023-04-24T01:09:12;1.38;;;1.27;;
54269;SDS011;40181;51.560;13.000;2023-04-24T01:11:42;2.93;;;1.83;;
54269;SDS011;40181;51.560;13.000;2023-04-24T01:14:11;2.85;;;2.08;;
54269;SDS011;40181;51.560;13.000;2023-04-24T01:16:40;4.70;;;1.98;;
54269;SDS011;40181;51.560;13.000;2023-04-24T01:19:12;2.80;;;1.83;;
54269;SDS011;40181;51.560;13.000;2023-04-24T01:21:43;1.70;;;1.48;;
54269;SDS011;40181;51.560;13.000;2023-04-24T01:24:18;1.67;;;1.40;;
54269;SDS011;40181;51.560;13.000;2023-04-24T01:26:47;1.10;;;1.00;;
54269;SDS011;40181;51.560;13.000;2023-04-24T01:29:16;1.25;;;1.15;;
54269;SDS011;40181;51.560;13.000;2023-04-24T01:31:46;1.92;;;1.70;;
54269;SDS011;40181;51.560;13.000;2023-04-24T01:34:15;1.50;;;1.40;;
54269;SDS011;40181;51.560;13.000;2023-04-24T01:36:45;2.45;;;1.67;;
54269;SDS011;40181;51.560;13.000;2023-04-24T01:39:18;2.70;;;1.35;;
54269;SDS011;40181;51.560;13.000;2023-04-24T01:41:48;1.83;;;1.27;;
54269;SDS011;40181;51.560;13.000;2023-04-24T01:44:17;1.73;;;1.35;;
54269;SDS011;40181;51.560;13.000;2023-04-24T01:46:47;2.42;;;1.92;;
54269;SDS011;40181;51.560;13.000;2023-04-24T01:49:16;4.22;;;1.60;;
54269;SDS011;40181;51.560;13.000;2023-04-24T01:51:45;0.88;;;0.88;;
54269;SDS011;40181;51.560;13.000;2023-04-24T01:54:14;1.48;;;1.15;;
54269;SDS011;40181;51.560;13.000;2023-04-24T01:56:49;2.25;;;1.50;;
54269;SDS011;40181;51.560;13.000;2023-04-24T01:59:18;1.33;;;1.05;;
54269;SDS011;40181;51.560;13.000;2023-04-24T02:01:50;1.63;;;0.75;;
54269;SDS011;40181;51.560;13.000;2023-04-24T02:04:21;1.17;;;0.70;;
54269;SDS011;40181;51.560;13.000;2023-04-24T02:06:52;1.35;;;0.85;;
54269;SDS011;40181;51.560;13.000;2023-04-24T02:09:23;2.00;;;1.38;;
54269;SDS011;40181;51.560;13.000;2023-04-24T02:11:52;0.60;;;0.50;;
54269;SDS011;40181;51.560;13.000;2023-04-24T02:14:22;1.55;;;0.68;;
54269;SDS011;40181;51.560;13.000;2023-04-24T02:16:51;1.90;;;0.50;;
54269;SDS011;40181;51.560;13.000;2023-04-24T02:19:21;0.40;;;0.38;;
54269;SDS011;40181;51.560;13.000;2023-04-24T02:21:50;1.38;;;0.80;;
54269;SDS011;40181;51.560;13.000;2023-04-24T02:24:19;0.82;;;0.70;;
54269;SDS011;40181;51.560;13.000;2023-04-24T02:26:50;5.07;;;1.08;;
54269;SDS011;40181;51.560;13.000;2023-04-24T02:29:19;0.75;;;0.40;;
54269;SDS011;40181;51.560;13.000;2023-04-24T02:31:49;2.63;;;1.17;;
54269;SDS011;40181;51.560;13.000;2023-04-24T02:34:18;0.40;;;0.40;;
54269;SDS011;40181;51.560;13.000;2023-04-24T02:36:48;1.05;;;0.65;;
54269;SDS011;40181;51.560;13.000;2023-04-24T02:41:47;0.40;;;0.40;;
54269;SDS011;40181;51.560;13.000;2023-04-24T02:44:19;0.38;;;0.35;;
54269;SDS011;40181;51.560;13.000;2023-04-24T02:46:48;0.85;;;0.60;;
54269;SDS011;40181;51.560;13.000;2023-04-24T02:49:17;0.80;;;0.63;;
54269;SDS011;40181;51.560;13.000;2023-04-24T02:51:46;0.28;;;0.28;;
54269;SDS011;40181;51.560;13.000;2023-04-24T02:54:15;3.25;;;0.85;;
54269;SDS011;40181;51.560;13.000;2023-04-24T02:56:44;2.30;;;1.13;;
54269;SDS011;40181;51.560;13.000;2023-04-24T02:59:16;0.70;;;0.60;;
54269;SDS011;40181;51.560;13.000;2023-04-24T03:01:45;0.52;;;0.52;;
54269;SDS011;40181;51.560;13.000;2023-04-24T03:04:14;1.65;;;1.00;;
54269;SDS011;40181;51.560;13.000;2023-04-24T03:06:45;1.27;;;0.63;;
54269;SDS011;40181;51.560;13.000;2023-04-24T03:09:14;1.13;;;0.82;;
54269;SDS011;40181;51.560;13.000;2023-04-24T03:11:43;1.15;;;0.75;;
54269;SDS011;40181;51.560;13.000;2023-04-24T03:14:16;1.10;;;0.60;;
54269;SDS011;40181;51.560;13.000;2023-04-24T03:16:45;1.13;;;0.82;;
54269;SDS011;40181;51.560;13.000;2023-04-24T03:19:15;1.00;;;0.70;;
54269;SDS011;40181;51.560;13.000;2023-04-24T03:21:44;1.05;;;0.63;;
54269;SDS011;40181;51.560;13.000;2023-04-24T03:24:13;1.10;;;0.80;;
54269;SDS011;40181;51.560;13.000;2023-04-24T03:26:42;1.58;;;0.90;;
54269;SDS011;40181;51.560;13.000;2023-04-24T03:29:11;0.50;;;0.43;;
54269;SDS011;40181;51.560;13.000;2023-04-24T03:31:43;0.80;;;0.68;;
54269;SDS011;40181;51.560;13.000;2023-04-24T03:34:12;1.23;;;1.00;;
54269;SDS011;40181;51.560;13.000;2023-04-24T03:36:41;1.08;;;0.60;;
54269;SDS011;40181;51.560;13.000;2023-04-24T03:39:12;3.30;;;1.65;;
54269;SDS011;40181;51.560;13.000;2023-04-24T03:41:41;3.75;;;1.00;;
54269;SDS011;40181;51.560;13.000;2023-04-24T03:44:10;1.65;;;1.05;;
54269;SDS011;40181;51.560;13.000;2023-04-24T03:46:39;0.90;;;0.60;;
54269;SDS011;40181;51.560;13.000;2023-04-24T03:49:11;0.90;;;0.65;;
54269;SDS011;40181;51.560;13.000;2023-04-24T03:51:40;9.07;;;0.75;;
54269;SDS011;40181;51.560;13.000;2023-04-24T03:54:09;0.85;;;0.60;;
54269;SDS011;40181;51.560;13.000;2023-04-24T03:56:38;0.73;;;0.60;;
54269;SDS011;40181;51.560;13.000;2023-04-24T03:59:07;0.50;;;0.50;;
54269;SDS011;40181;51.560;13.000;2023-04-24T04:01:38;0.73;;;0.50;;
54269;SDS011;40181;51.560;13.000;2023-04-24T04:04:10;0.95;;;0.68;;
54269;SDS011;40181;51.560;13.000;2023-04-24T04:06:39;0.80;;;0.60;;
54269;SDS011;40181;51.560;13.000;2023-04-24T04:09:09;1.23;;;0.88;;
54269;SDS011;40181;51.560;13.000;2023-04-24T04:11:38;2.40;;;1.27;;
54269;SDS011;40181;51.560;13.000;2023-04-24T04:14:07;0.93;;;0.50;;
54269;SDS011;40181;51.560;13.000;2023-04-24T04:16:36;0.52;;;0.50;;
54269;SDS011;40181;51.560;13.000;2023-04-24T04:19:05;0.90;;;0.68;;
54269;SDS011;40181;51.560;13.000;2023-04-24T04:21:37;0.30;;;0.30;;
54269;SDS011;40181;51.560;13.000;2023-04-24T04:24:06;1.50;;;0.88;;
54269;SDS011;40181;51.560;13.000;2023-04-24T04:26:36;2.50;;;0.80;;
54269;SDS011;40181;51.560;13.000;2023-04-24T04:29:05;1.20;;;0.80;;
54269;SDS011;40181;51.560;13.000;2023-04-24T04:31:35;1.08;;;0.75;;
54269;SDS011;40181;51.560;13.000;2023-04-24T04:34:05;1.10;;;0.80;;
54269;SDS011;40181;51.560;13.000;2023-04-24T04:36:34;0.93;;;0.75;;
54269;SDS011;40181;51.560;13.000;2023-04-24T04:39:06;0.77;;;0.73;;
54269;SDS011;40181;51.560;13.000;2023-04-24T04:41:35;0.75;;;0.60;;
54269;SDS011;40181;51.560;13.000;2023-04-24T04:44:05;0.40;;;0.40;;
54269;SDS011;40181;51.560;13.000;2023-04-24T04:46:34;0.60;;;0.60;;
54269;SDS011;40181;51.560;13.000;2023-04-24T04:49:04;1.27;;;1.00;;
54269;SDS011;40181;51.560;13.000;2023-04-24T04:51:33;2.25;;;0.95;;
54269;SDS011;40181;51.560;13.000;2023-04-24T04:54:05;0.43;;;0.43;;
54269;SDS011;40181;51.560;13.000;2023-04-24T04:56:34;0.95;;;0.77;;
54269;SDS011;40181;51.560;13.000;2023-04-24T04:59:03;0.40;;;0.40;;
54269;SDS011;40181;51.560;13.000;2023-04-24T05:01:32;0.57;;;0.40;;
54269;SDS011;40181;51.560;13.000;2023-04-24T05:04:01;1.10;;;0.70;;
54269;SDS011;40181;51.560;13.000;2023-04-24T05:06:30;2.10;;;1.25;;
54269;SDS011;40181;51.560;13.000;2023-04-24T05:09:00;1.25;;;1.08;;
54269;SDS011;40181;51.560;13.000;2023-04-24T05:11:31;4.03;;;1.80;;
54269;SDS011;40181;51.560;13.000;2023-04-24T05:14:00;2.25;;;1.10;;
54269;SDS011;40181;51.560;13.000;2023-04-24T05:16:30;1.48;;;1.02;;
54269;SDS011;40181;51.560;13.000;2023-04-24T05:18:59;2.25;;;1.10;;
54269;SDS011;40181;51.560;13.000;2023-04-24T05:21:28;1.27;;;0.77;;
54269;SDS011;40181;51.560;13.000;2023-04-24T05:23:57;0.40;;;0.40;;
54269;SDS011;40181;51.560;13.000;2023-04-24T05:26:26;0.55;;;0.52;;
54269;SDS011;40181;51.560;13.000;2023-04-24T05:28:58;0.40;;;0.40;;
54269;SDS011;40181;51.560;13.000;2023-04-24T05:31:27;0.77;;;0.60;;
54269;SDS011;40181;51.560;13.000;2023-04-24T05:33:56;2.17;;;1.00;;
54269;SDS011;40181;51.560;13.000;2023-04-24T05:36:25;1.40;;;0.57;;
54269;SDS011;40181;51.560;13.000;2023-04-24T05:38:55;1.00;;;0.90;;
54269;SDS011;40181;51.560;13.000;2023-04-24T05:41:25;1.55;;;0.60;;
54269;SDS011;40181;51.560;13.000;2023-04-24T05:43:54;0.75;;;0.60;;
54269;SDS011;40181;51.560;13.000;2023-04-24T05:46:25;2.50;;;0.75;;
54269;SDS011;40181;51.560;13.000;2023-04-24T05:48:54;0.52;;;0.50;;
54269;SDS011;40181;51.560;13.000;2023-04-24T05:51:23;1.92;;;0.50;;
54269;SDS011;40181;51.560;13.000;2023-04-24T05:53:53;0.68;;;0.60;;
54269;SDS011;40181;51.560;13.000;2023-04-24T05:56:23;1.02;;;0.70;;
54269;SDS011;40181;51.560;13.000;2023-04-24T05:58:52;2.45;;;1.00;;
54269;SDS011;40181;51.560;13.000;2023-04-24T06:01:24;0.63;;;0.47;;
54269;SDS011;40181;51.560;13.000;2023-04-24T06:03:53;1.40;;;0.98;;
54269;SDS011;40181;51.560;13.000;2023-04-24T06:06:22;1.05;;;0.80;;
54269;SDS011;40181;51.560;13.000;2023-04-24T06:08:55;1.30;;;0.88;;
54269;SDS011;40181;51.560;13.000;2023-04-24T06:11:24;0.82;;;0.80;;
54269;SDS011;40181;51.560;13.000;2023-04-24T06:13:53;1.40;;;0.88;;
54269;SDS011;40181;51.560;13.000;2023-04-24T06:16:24;5.38;;;1.00;;
54269;SDS011;40181;51.560;13.000;2023-04-24T06:18:53;0.55;;;0.55;;
54269;SDS011;40181;51.560;13.000;2023-04-24T06:21:23;2.67;;;0.90;;
54269;SDS011;40181;51.560;13.000;2023-04-24T06:23:52;1.10;;;0.80;;
54269;SDS011;40181;51.560;13.000;2023-04-24T06:26:23;0.95;;;0.68;;
54269;SDS011;40181;51.560;13.000;2023-04-24T06:28:52;1.55;;;0.90;;
54269;SDS011;40181;51.560;13.000;2023-04-24T06:31:26;1.50;;;0.75;;
54269;SDS011;40181;51.560;13.000;2023-04-24T06:33:55;1.25;;;0.80;;
54269;SDS011;40181;51.560;13.000;2023-04-24T06:36:24;0.90;;;0.68;;
54269;SDS011;40181;51.560;13.000;2023-04-24T06:38:55;1.85;;;1.10;;
54269;SDS011;40181;51.560;13.000;2023-04-24T06:41:25;3.40;;;0.85;;
54269;SDS011;40181;51.560;13.000;2023-04-24T06:43:54;2.88;;;1.13;;
54269;SDS011;40181;51.560;13.000;2023-04-24T06:46:26;1.77;;;0.80;;
54269;SDS011;40181;51.560;13.000;2023-04-24T06:48:55;1.40;;;0.70;;
54269;SDS011;40181;51.560;13.000;2023-04-24T06:51:25;1.52;;;0.77;;
54269;SDS011;40181;51.560;13.000;2023-04-24T06:53:55;1.65;;;0.80;;
54269;SDS011;40181;51.560;13.000;2023-04-24T06:56:24;1.88;;;0.90;;
54269;SDS011;40181;51.560;13.000;2023-04-24T06:58:54;1.27;;;0.60;;
54269;SDS011;40181;51.560;13.000;2023-04-24T07:01:25;3.55;;;0.82;;
54269;SDS011;40181;51.560;13.000;2023-04-24T07:03:55;2.38;;;0.88;;
54269;SDS011;40181;51.560;13.000;2023-04-24T07:06:24;2.80;;;1.00;;
54269;SDS011;40181;51.560;13.000;2023-04-24T07:08:58;1.73;;;1.02;;
54269;SDS011;40181;51.560;13.000;2023-04-24T07:11:28;1.33;;;0.80;;
54269;SDS011;40181;51.560;13.000;2023-04-24T07:13:57;11.15;;;0.75;;
54269;SDS011;40181;51.560;13.000;2023-04-24T07:16:29;1.75;;;1.27;;
54269;SDS011;40181;51.560;13.000;2023-04-24T07:18:58;1.05;;;0.75;;
54269;SDS011;40181;51.560;13.000;2023-04-24T07:21:27;1.08;;;0.70;;
54269;SDS011;40181;51.560;13.000;2023-04-24T07:23:56;5.97;;;1.20;;
54269;SDS011;40181;51.560;13.000;2023-04-24T07:26:26;1.38;;;1.13;;
54269;SDS011;40181;51.560;13.000;2023-04-24T07:28:56;0.60;;;0.50;;
54269;SDS011;40181;51.560;13.000;2023-04-24T07:31:25;2.80;;;0.82;;
54269;SDS011;40181;51.560;13.000;2023-04-24T07:33:57;6.93;;;1.30;;
54269;SDS011;40181;51.560;13.000;2023-04-24T07:36:26;0.55;;;0.47;;
54269;SDS011;40181;51.560;13.000;2023-04-24T07:38:55;2.88;;;1.10;;
54269;SDS011;40181;51.560;13.000;2023-04-24T07:41:24;2.08;;;0.90;;
54269;SDS011;40181;51.560;13.000;2023-04-24T07:43:54;1.60;;;1.08;;
54269;SDS011;40181;51.560;13.000;2023-04-24T07:46:23;1.35;;;0.88;;
54269;SDS011;40181;51.560;13.000;2023-04-24T07:48:57;2.65;;;1.42;;
54269;SDS011;40181;51.560;13.000;2023-04-24T07:51:26;0.68;;;0.60;;
54269;SDS011;40181;51.560;13.000;2023-04-24T07:53:56;2.15;;;1.35;;
54269;SDS011;40181;51.560;13.000;2023-04-24T07:56:25;1.60;;;0.60;;
54269;SDS011;40181;51.560;13.000;2023-04-24T08:01:25;0.88;;;0.50;;
54269;SDS011;40181;51.560;13.000;2023-04-24T08:03:56;0.98;;;0.70;;
54269;SDS011;40181;51.560;13.000;2023-04-24T08:06:25;1.17;;;0.85;;
54269;SDS011;40181;51.560;13.000;2023-04-24T08:08:57;1.25;;;1.00;;
54269;SDS011;40181;51.560;13.000;2023-04-24T08:11:26;1.63;;;0.70;;
54269;SDS011;40181;51.560;13.000;2023-04-24T08:13:55;2.60;;;1.60;;
54269;SDS011;40181;51.560;13.000;2023-04-24T08:16:24;2.72;;;1.23;;
54269;SDS011;40181;51.560;13.000;2023-04-24T08:18:53;1.45;;;0.57;;
54269;SDS011;40181;51.560;13.000;2023-04-24T08:21:25;0.75;;;0.50;;
54269;SDS011;40181;51.560;13.000;2023-04-24T08:23:54;2.00;;;0.98;;
54269;SDS011;40181;51.560;13.000;2023-04-24T08:26:24;1.05;;;0.60;;
54269;SDS011;40181;51.560;13.000;2023-04-24T08:28:53;2.42;;;0.95;;
54269;SDS011;40181;51.560;13.000;2023-04-24T08:31:22;1.20;;;0.68;;
54269;SDS011;40181;51.560;13.000;2023-04-24T08:33:51;2.33;;;0.73;;
54269;SDS011;40181;51.560;13.000;2023-04-24T08:36:23;1.50;;;0.90;;
54269;SDS011;40181;51.560;13.000;2023-04-24T08:38:52;1.42;;;0.75;;
54269;SDS011;40181;51.560;13.000;2023-04-24T08:41:21;1.50;;;0.73;;
54269;SDS011;40181;51.560;13.000;2023-04-24T08:43:51;1.42;;;0.57;;
54269;SDS011;40181;51.560;13.000;2023-04-24T08:46:23;0.70;;;0.28;;
54269;SDS011;40181;51.560;13.000;2023-04-24T08:48:53;0.40;;;0.38;;
54269;SDS011;40181;51.560;13.000;2023-04-24T08:51:24;1.67;;;0.90;;
54269;SDS011;40181;51.560;13.000;2023-04-24T08:53:55;1.73;;;0.90;;
54269;SDS011;40181;51.560;13.000;2023-04-24T08:56:25;0.70;;;0.60;;
54269;SDS011;40181;51.560;13.000;2023-04-24T08:58:57;1.60;;;0.88;;
54269;SDS011;40181;51.560;13.000;2023-04-24T09:01:26;5.03;;;1.40;;
54269;SDS011;40181;51.560;13.000;2023-04-24T09:03:56;0.68;;;0.40;;
54269;SDS011;40181;51.560;13.000;2023-04-24T09:06:28;1.55;;;0.55;;
54269;SDS011;40181;51.560;13.000;2023-04-24T09:08:59;1.70;;;0.70;;
54269;SDS011;40181;51.560;13.000;2023-04-24T09:11:30;2.20;;;0.75;;
54269;SDS011;40181;51.560;13.000;2023-04-24T09:14:00;2.37;;;1.10;;
54269;SDS011;40181;51.560;13.000;2023-04-24T09:16:30;0.77;;;0.50;;
54269;SDS011;40181;51.560;13.000;2023-04-24T09:19:00;2.00;;;1.00;;
54269;SDS011;40181;51.560;13.000;2023-04-24T09:21:33;3.15;;;0.80;;
54269;SDS011;40181;51.560;13.000;2023-04-24T09:24:04;0.60;;;0.57;;
54269;SDS011;40181;51.560;13.000;2023-04-24T09:26:43;1.67;;;0.88;;
54269;SDS011;40181;51.560;13.000;2023-04-24T09:29:14;0.28;;;0.25;;
54269;SDS011;40181;51.560;13.000;2023-04-24T09:31:44;1.42;;;0.63;;
54269;SDS011;40181;51.560;13.000;2023-04-24T09:34:14;0.40;;;0.30;;
54269;SDS011;40181;51.560;13.000;2023-04-24T09:36:52;0.57;;;0.50;;
54269;SDS011;40181;51.560;13.000;2023-04-24T09:39:22;1.13;;;0.40;;
54269;SDS011;40181;51.560;13.000;2023-04-24T09:41:51;1.00;;;0.45;;
54269;SDS011;40181;51.560;13.000;2023-04-24T09:44:23;1.40;;;0.60;;
54269;SDS011;40181;51.560;13.000;2023-04-24T09:46:55;1.20;;;0.80;;
54269;SDS011;40181;51.560;13.000;2023-04-24T09:49:27;0.70;;;0.38;;
54269;SDS011;40181;51.560;13.000;2023-04-24T09:52:04;0.82;;;0.57;;
54269;SDS011;40181;51.560;13.000;2023-04-24T09:54:35;0.57;;;0.40;;
54269;SDS011;40181;51.560;13.000;2023-04-24T09:57:06;0.70;;;0.43;;
54269;SDS011;40181;51.560;13.000;2023-04-24T09:59:38;0.65;;;0.50;;
54269;SDS011;40181;51.560;13.000;2023-04-24T10:02:16;0.30;;;0.30;;
54269;SDS011;40181;51.560;13.000;2023-04-24T10:04:53;0.55;;;0.30;;
54269;SDS011;40181;51.560;13.000;2023-04-24T10:07:28;2.38;;;0.75;;
54269;SDS011;40181;51.560;13.000;2023-04-24T10:09:57;0.30;;;0.30;;
54269;SDS011;40181;51.560;13.000;2023-04-24T10:12:27;1.50;;;0.65;;
54269;SDS011;40181;51.560;13.000;2023-04-24T10:14:56;1.65;;;0.40;;
54269;SDS011;40181;51.560;13.000;2023-04-24T10:17:26;1.13;;;0.60;;
54269;SDS011;40181;51.560;13.000;2023-04-24T10:19:57;1.55;;;0.75;;
54269;SDS011;40181;51.560;13.000;2023-04-24T10:22:30;1.48;;;0.47;;
54269;SDS011;40181;51.560;13.000;2023-04-24T10:25:00;0.85;;;0.60;;
54269;SDS011;40181;51.560;13.000;2023-04-24T10:27:33;1.05;;;0.60;;
54269;SDS011;40181;51.560;13.000;2023-04-24T10:30:05;0.88;;;0.32;;
54269;SDS011;40181;51.560;13.000;2023-04-24T10:32:36;0.50;;;0.38;;
54269;SDS011;40181;51.560;13.000;2023-04-24T10:35:05;0.55;;;0.35;;
54269;SDS011;40181;51.560;13.000;2023-04-24T10:37:39;0.65;;;0.55;;
54269;SDS011;40181;51.560;13.000;2023-04-24T10:40:16;0.90;;;0.60;;
54269;SDS011;40181;51.560;13.000;2023-04-24T10:42:47;8.07;;;0.75;;
54269;SDS011;40181;51.560;13.000;2023-04-24T10:45:19;0.60;;;0.25;;
54269;SDS011;40181;51.560;13.000;2023-04-24T10:50:26;1.75;;;0.55;;
54269;SDS011;40181;51.560;13.000;2023-04-24T10:53:15;1.33;;;0.60;;
54269;SDS011;40181;51.560;13.000;2023-04-24T10:55:49;0.98;;;0.70;;
54269;SDS011;40181;51.560;13.000;2023-04-24T10:58:21;0.50;;;0.50;;
54269;SDS011;40181;51.560;13.000;2023-04-24T11:00:55;1.25;;;0.70;;
54269;SDS011;40181;51.560;13.000;2023-04-24T11:03:26;1.20;;;0.80;;
54269;SDS011;40181;51.560;13.000;2023-04-24T11:05:58;2.08;;;1.13;;
54269;SDS011;40181;51.560;13.000;2023-04-24T11:08:37;1.48;;;0.70;;
54269;SDS011;40181;51.560;13.000;2023-04-24T11:11:11;0.98;;;0.77;;
54269;SDS011;40181;51.560;13.000;2023-04-24T11:16:51;0.60;;;0.35;;
54269;SDS011;40181;51.560;13.000;2023-04-24T11:19:22;0.80;;;0.57;;
54269;SDS011;40181;51.560;13.000;2023-04-24T11:21:57;1.33;;;0.68;;
54269;SDS011;40181;51.560;13.000;2023-04-24T11:24:32;0.65;;;0.47;;
54269;SDS011;40181;51.560;13.000;2023-04-24T11:27:11;3.70;;;1.40;;
54269;SDS011;40181;51.560;13.000;2023-04-24T11:29:45;2.63;;;0.90;;
54269;SDS011;40181;51.560;13.000;2023-04-24T11:32:27;0.43;;;0.40;;
54269;SDS011;40181;51.560;13.000;2023-04-24T11:34:58;1.58;;;0.57;;
54269;SDS011;40181;51.560;13.000;2023-04-24T11:37:33;1.17;;;0.70;;
54269;SDS011;40181;51.560;13.000;2023-04-24T11:40:07;1.33;;;0.63;;
54269;SDS011;40181;51.560;13.000;2023-04-24T11:42:41;2.05;;;0.68;;
54269;SDS011;40181;51.560;13.000;2023-04-24T11:45:12;3.25;;;0.55;;
54269;SDS011;40181;51.560;13.000;2023-04-24T11:47:43;1.35;;;0.60;;
54269;SDS011;40181;51.560;13.000;2023-04-24T11:50:14;1.15;;;0.75;;
54269;SDS011;40181;51.560;13.000;2023-04-24T11:52:45;0.77;;;0.47;;
54269;SDS011;40181;51.560;13.000;2023-04-24T11:55:26;2.30;;;0.93;;
54269;SDS011;40181;51.560;13.000;2023-04-24T11:57:57;1.20;;;0.63;;
54269;SDS011;40181;51.560;13.000;2023-04-24T12:00:27;2.10;;;0.82;;
54269;SDS011;40181;51.560;13.000;2023-04-24T12:03:05;0.82;;;0.40;;
54269;SDS011;40181;51.560;13.000;2023-04-24T12:05:37;0.40;;;0.40;;
54269;SDS011;40181;51.560;13.000;2023-04-24T12:08:07;0.40;;;0.30;;
54269;SDS011;40181;51.560;13.000;2023-04-24T12:10:38;1.27;;;0.60;;
54269;SDS011;40181;51.560;13.000;2023-04-24T12:13:08;3.83;;;0.75;;
54269;SDS011;40181;51.560;13.000;2023-04-24T12:15:39;0.47;;;0.30;;
54269;SDS011;40181;51.560;13.000;2023-04-24T12:18:11;0.88;;;0.50;;
54269;SDS011;40181;51.560;13.000;2023-04-24T12:20:41;2.38;;;1.27;;
54269;SDS011;40181;51.560;13.000;2023-04-24T12:23:11;0.95;;;0.47;;
54269;SDS011;40181;51.560;13.000;2023-04-24T12:25:42;2.30;;;0.77;;
54269;SDS011;40181;51.560;13.000;2023-04-24T12:28:12;1.95;;;0.55;;
54269;SDS011;40181;51.560;13.000;2023-04-24T12:30:42;1.55;;;0.40;;
54269;SDS011;40181;51.560;13.000;2023-04-24T12:33:17;0.70;;;0.43;;
54269;SDS011;40181;51.560;13.000;2023-04-24T12:35:47;1.20;;;0.52;;
54269;SDS011;40181;51.560;13.000;2023-04-24T12:38:21;3.25;;;0.50;;
54269;SDS011;40181;51.560;13.000;2023-04-24T12:41:04;0.20;;;0.20;;
54269;SDS011;40181;51.560;13.000;2023-04-24T12:43:35;0.30;;;0.30;;
54269;SDS011;40181;51.560;13.000;2023-04-24T12:46:05;1.20;;;0.80;;
54269;SDS011;40181;51.560;13.000;2023-04-24T12:48:34;0.73;;;0.60;;
54269;SDS011;40181;51.560;13.000;2023-04-24T12:51:03;1.98;;;0.63;;
54269;SDS011;40181;51.560;13.000;2023-04-24T12:53:33;4.28;;;1.05;;
54269;SDS011;40181;51.560;13.000;2023-04-24T12:56:05;1.35;;;0.88;;
54269;SDS011;40181;51.560;13.000;2023-04-24T12:58:34;2.50;;;1.40;;
54269;SDS011;40181;51.560;13.000;2023-04-24T13:01:03;8.75;;;1.00;;
54269;SDS011;40181;51.560;13.000;2023-04-24T13:03:32;0.55;;;0.52;;
54269;SDS011;40181;51.560;13.000;2023-04-24T13:06:01;0.95;;;0.77;;
54269;SDS011;40181;51.560;13.000;2023-04-24T13:08:31;0.88;;;0.60;;
54269;SDS011;40181;51.560;13.000;2023-04-24T13:11:00;0.90;;;0.70;;
54269;SDS011;40181;51.560;13.000;2023-04-24T13:13:31;3.92;;;1.48;;
54269;SDS011;40181;51.560;13.000;2023-04-24T13:16:01;1.70;;;0.45;;
54269;SDS011;40181;51.560;13.000;2023-04-24T13:18:30;1.02;;;0.90;;
54269;SDS011;40181;51.560;13.000;2023-04-24T13:20:59;1.10;;;0.70;;
54269;SDS011;40181;51.560;13.000;2023-04-24T13:23:28;2.25;;;0.90;;
54269;SDS011;40181;51.560;13.000;2023-04-24T13:25:57;1.30;;;0.85;;
54269;SDS011;40181;51.560;13.000;2023-04-24T13:28:27;1.27;;;0.52;;
54269;SDS011;40181;51.560;13.000;2023-04-24T13:30:58;0.88;;;0.68;;
54269;SDS011;40181;51.560;13.000;2023-04-24T13:33:27;1.90;;;0.50;;
54269;SDS011;40181;51.560;13.000;2023-04-24T13:35:57;1.00;;;0.60;;
54269;SDS011;40181;51.560;13.000;2023-04-24T13:38:26;1.52;;;0.63;;
54269;SDS011;40181;51.560;13.000;2023-04-24T13:40:55;4.95;;;0.90;;
54269;SDS011;40181;51.560;13.000;2023-04-24T13:43:24;6.65;;;0.82;;
54269;SDS011;40181;51.560;13.000;2023-04-24T13:45:53;1.88;;;0.70;;
54269;SDS011;40181;51.560;13.000;2023-04-24T13:48:26;1.30;;;0.60;;
54269;SDS011;40181;51.560;13.000;2023-04-24T13:50:55;1.20;;;0.52;;
54269;SDS011;40181;51.560;13.000;2023-04-24T13:53:25;1.52;;;0.75;;
54269;SDS011;40181;51.560;13.000;2023-04-24T13:55:54;0.30;;;0.30;;
54269;SDS011;40181;51.560;13.000;2023-04-24T13:58:23;2.05;;;1.10;;
54269;SDS011;40181;51.560;13.000;2023-04-24T14:00:52;1.02;;;0.63;;
54269;SDS011;40181;51.560;13.000;2023-04-24T14:03:21;1.50;;;0.90;;
54269;SDS011;40181;51.560;13.000;2023-04-24T14:05:53;1.75;;;0.60;;
54269;SDS011;40181;51.560;13.000;2023-04-24T14:08:22;4.25;;;0.85;;
54269;SDS011;40181;51.560;13.000;2023-04-24T14:10:51;0.75;;;0.50;;
54269;SDS011;40181;51.560;13.000;2023-04-24T14:13:20;0.55;;;0.45;;
54269;SDS011;40181;51.560;13.000;2023-04-24T14:15:50;1.10;;;0.57;;
54269;SDS011;40181;51.560;13.000;2023-04-24T14:18:20;0.82;;;0.50;;
54269;SDS011;40181;51.560;13.000;2023-04-24T14:20:49;1.27;;;0.60;;
54269;SDS011;40181;51.560;13.000;2023-04-24T14:23:20;0.70;;;0.40;;
54269;SDS011;40181;51.560;13.000;2023-04-24T14:25:49;1.02;;;0.73;;
54269;SDS011;40181;51.560;13.000;2023-04-24T14:28:19;0.52;;;0.52;;
54269;SDS011;40181;51.560;13.000;2023-04-24T14:30:48;0.60;;;0.50;;
54269;SDS011;40181;51.560;13.000;2023-04-24T14:33:17;1.20;;;0.80;;
54269;SDS011;40181;51.560;13.000;2023-04-24T14:35:46;0.68;;;0.55;;
54269;SDS011;40181;51.560;13.000;2023-04-24T14:38:18;1.42;;;0.60;;
54269;SDS011;40181;51.560;13.000;2023-04-24T14:40:47;1.98;;;0.77;;
54269;SDS011;40181;51.560;13.000;2023-04-24T14:43:16;1.90;;;1.02;;
54269;SDS011;40181;51.560;13.000;2023-04-24T14:45:45;0.15;;;0.15;;
54269;SDS011;40181;51.560;13.000;2023-04-24T14:48:14;0.80;;;0.50;;
54269;SDS011;40181;51.560;13.000;2023-04-24T14:50:43;1.08;;;0.50;;
54269;SDS011;40181;51.560;13.000;2023-04-24T14:53:13;1.20;;;0.80;;
54269;SDS011;40181;51.560;13.000;2023-04-24T14:55:46;0.30;;;0.30;;
54269;SDS011;40181;51.560;13.000;2023-04-24T14:58:15;1.33;;;0.40;;
54269;SDS011;40181;51.560;13.000;2023-04-24T15:00:44;1.00;;;0.55;;
54269;SDS011;40181;51.560;13.000;2023-04-24T15:03:15;0.55;;;0.47;;